sensor_id;sensor_type;location;lat;lon;timestamp;temperature;humidity
3790;DHT22;1910;49.042;9.028;2023-06-26T00:02:58;18.30;99.90
3790;DHT22;1910;49.042;9.028;2023-06-26T00:07:51;18.10;99.90
3790;DHT22;1910;49.042;9.028;2023-06-26T00:12:42;18.00;99.90
3790;DHT22;1910;49.042;9.028;2023-06-26T00:15:08;18.00;99.90
3790;DHT22;1910;49.042;9.028;2023-06-26T00:17:33;18.00;99.90
3790;DHT22;1910;49.042;9.028;2023-06-26T00:20:02;18.00;99.90
3790;DHT22;1910;49.042;9.028;2023-06-26T00:22:28;18.00;99.90
3790;DHT22;1910;49.042;9.028;2023-06-26T00:24:54;18.10;99.90
3790;DHT22;1910;49.042;9.028;2023-06-26T00:27:19;18.10;99.90
3790;DHT22;1910;49.042;9.028;2023-06-26T00:29:45;18.10;99.90
3790;DHT22;1910;49.042;9.028;2023-06-26T00:32:11;18.10;99.90
3790;DHT22;1910;49.042;9.028;2023-06-26T00:34:37;18.00;99.90
3790;DHT22;1910;49.042;9.028;2023-06-26T00:37:02;18.00;99.90
3790;DHT22;1910;49.042;9.028;2023-06-26T00:39:28;18.00;99.90
3790;DHT22;1910;49.042;9.028;2023-06-26T00:41:53;18.00;99.90
3790;DHT22;1910;49.042;9.028;2023-06-26T00:44:19;18.00;99.90
3790;DHT22;1910;49.042;9.028;2023-06-26T00:46:45;18.00;99.90
3790;DHT22;1910;49.042;9.028;2023-06-26T00:49:11;18.00;99.90
3790;DHT22;1910;49.042;9.028;2023-06-26T00:51:36;18.00;99.90
3790;DHT22;1910;49.042;9.028;2023-06-26T00:54:02;18.10;99.90
3790;DHT22;1910;49.042;9.028;2023-06-26T00:58:54;18.10;99.90
3790;DHT22;1910;49.042;9.028;2023-06-26T01:01:20;18.00;99.90
3790;DHT22;1910;49.042;9.028;2023-06-26T01:03:49;17.80;99.90
3790;DHT22;1910;49.042;9.028;2023-06-26T01:06:20;17.50;99.90
3790;DHT22;1910;49.042;9.028;2023-06-26T01:08:47;17.50;99.90
3790;DHT22;1910;49.042;9.028;2023-06-26T01:11:13;20.30;99.90
3790;DHT22;1910;49.042;9.028;2023-06-26T01:13:40;17.30;99.90
3790;DHT22;1910;49.042;9.028;2023-06-26T01:18:32;17.50;99.90
3790;DHT22;1910;49.042;9.028;2023-06-26T01:21:01;17.50;99.90
3790;DHT22;1910;49.042;9.028;2023-06-26T01:23:46;17.50;99.90
3790;DHT22;1910;49.042;9.028;2023-06-26T01:26:21;17.50;99.90
3790;DHT22;1910;49.042;9.028;2023-06-26T01:28:47;17.60;99.90
3790;DHT22;1910;49.042;9.028;2023-06-26T01:31:15;17.50;99.90
3790;DHT22;1910;49.042;9.028;2023-06-26T01:33:41;17.80;99.90
3790;DHT22;1910;49.042;9.028;2023-06-26T01:36:07;17.30;99.90
3790;DHT22;1910;49.042;9.028;2023-06-26T01:38:33;17.10;99.90
3790;DHT22;1910;49.042;9.028;2023-06-26T01:41:00;17.00;99.90
3790;DHT22;1910;49.042;9.028;2023-06-26T01:43:31;16.90;99.90
3790;DHT22;1910;49.042;9.028;2023-06-26T01:46:04;16.90;99.90
3790;DHT22;1910;49.042;9.028;2023-06-26T01:48:34;16.90;99.90
3790;DHT22;1910;49.042;9.028;2023-06-26T01:51:05;16.80;99.90
3790;DHT22;1910;49.042;9.028;2023-06-26T01:53:36;16.70;99.90
3790;DHT22;1910;49.042;9.028;2023-06-26T01:56:08;16.60;99.90
3790;DHT22;1910;49.042;9.028;2023-06-26T01:58:43;17.20;99.90
3790;DHT22;1910;49.042;9.028;2023-06-26T02:01:10;16.50;99.90
3790;DHT22;1910;49.042;9.028;2023-06-26T02:03:35;16.50;99.90
3790;DHT22;1910;49.042;9.028;2023-06-26T02:06:01;16.40;99.90
3790;DHT22;1910;49.042;9.028;2023-06-26T02:08:26;16.40;99.90
3790;DHT22;1910;49.042;9.028;2023-06-26T02:10:52;16.40;99.90
3790;DHT22;1910;49.042;9.028;2023-06-26T02:13:17;16.40;99.90
3790;DHT22;1910;49.042;9.028;2023-06-26T02:15:43;16.50;99.90
3790;DHT22;1910;49.042;9.028;2023-06-26T02:18:08;16.50;99.90
3790;DHT22;1910;49.042;9.028;2023-06-26T02:20:34;16.50;99.90
3790;DHT22;1910;49.042;9.028;2023-06-26T02:23:00;16.50;99.90
3790;DHT22;1910;49.042;9.028;2023-06-26T02:25:25;16.50;99.90
3790;DHT22;1910;49.042;9.028;2023-06-26T02:30:17;16.30;99.90
3790;DHT22;1910;49.042;9.028;2023-06-26T02:35:08;15.90;99.90
3790;DHT22;1910;49.042;9.028;2023-06-26T02:40:00;15.80;99.90
3790;DHT22;1910;49.042;9.028;2023-06-26T02:47:17;15.60;99.90
3790;DHT22;1910;49.042;9.028;2023-06-26T02:49:43;15.60;99.90
3790;DHT22;1910;49.042;9.028;2023-06-26T02:54:34;15.50;99.90
3790;DHT22;1910;49.042;9.028;2023-06-26T02:57:00;15.60;99.90
3790;DHT22;1910;49.042;9.028;2023-06-26T02:59:26;15.60;99.90
3790;DHT22;1910;49.042;9.028;2023-06-26T03:06:43;15.60;99.90
3790;DHT22;1910;49.042;9.028;2023-06-26T03:09:09;15.60;99.90
3790;DHT22;1910;49.042;9.028;2023-06-26T03:11:35;15.70;99.90
3790;DHT22;1910;49.042;9.028;2023-06-26T03:14:00;15.70;99.90
3790;DHT22;1910;49.042;9.028;2023-06-26T03:16:26;15.70;99.90
3790;DHT22;1910;49.042;9.028;2023-06-26T03:18:52;15.70;99.90
3790;DHT22;1910;49.042;9.028;2023-06-26T03:21:18;15.80;99.90
3790;DHT22;1910;49.042;9.028;2023-06-26T03:23:57;15.80;99.90
3790;DHT22;1910;49.042;9.028;2023-06-26T03:26:22;15.90;99.90
3790;DHT22;1910;49.042;9.028;2023-06-26T03:28:53;16.00;99.90
3790;DHT22;1910;49.042;9.028;2023-06-26T03:31:18;16.00;99.90
3790;DHT22;1910;49.042;9.028;2023-06-26T03:33:44;16.10;99.90
3790;DHT22;1910;49.042;9.028;2023-06-26T03:36:09;16.10;99.90
3790;DHT22;1910;49.042;9.028;2023-06-26T03:38:35;16.10;99.90
3790;DHT22;1910;49.042;9.028;2023-06-26T03:41:00;16.10;99.90
3790;DHT22;1910;49.042;9.028;2023-06-26T03:43:26;16.20;99.90
3790;DHT22;1910;49.042;9.028;2023-06-26T03:45:52;16.40;99.90
3790;DHT22;1910;49.042;9.028;2023-06-26T03:48:17;16.40;99.90
3790;DHT22;1910;49.042;9.028;2023-06-26T03:50:43;16.50;99.90
3790;DHT22;1910;49.042;9.028;2023-06-26T03:53:09;16.50;99.90
3790;DHT22;1910;49.042;9.028;2023-06-26T04:00:26;16.60;99.90
3790;DHT22;1910;49.042;9.028;2023-06-26T04:02:52;16.70;99.90
3790;DHT22;1910;49.042;9.028;2023-06-26T04:05:17;16.80;99.90
3790;DHT22;1910;49.042;9.028;2023-06-26T04:07:58;16.90;99.90
3790;DHT22;1910;49.042;9.028;2023-06-26T04:12:53;17.10;99.90
3790;DHT22;1910;49.042;9.028;2023-06-26T04:17:44;17.50;99.90
3790;DHT22;1910;49.042;9.028;2023-06-26T04:22:38;22.30;99.90
3790;DHT22;1910;49.042;9.028;2023-06-26T04:25:08;22.10;99.90
3790;DHT22;1910;49.042;9.028;2023-06-26T04:32:25;28.10;99.90
3790;DHT22;1910;49.042;9.028;2023-06-26T04:37:18;31.00;94.80
3790;DHT22;1910;49.042;9.028;2023-06-26T04:51:56;35.30;58.00
3790;DHT22;1910;49.042;9.028;2023-06-26T04:54:22;36.00;55.10
3790;DHT22;1910;49.042;9.028;2023-06-26T05:04:14;36.80;61.60
3790;DHT22;1910;49.042;9.028;2023-06-26T05:06:40;37.50;59.60
3790;DHT22;1910;49.042;9.028;2023-06-26T05:09:08;37.50;47.70
3790;DHT22;1910;49.042;9.028;2023-06-26T05:14:01;38.70;50.70
3790;DHT22;1910;49.042;9.028;2023-06-26T05:18:53;38.70;50.20
3790;DHT22;1910;49.042;9.028;2023-06-26T05:23:46;38.30;43.30
3790;DHT22;1910;49.042;9.028;2023-06-26T05:26:22;39.40;43.10
3790;DHT22;1910;49.042;9.028;2023-06-26T05:31:15;40.30;41.50
3790;DHT22;1910;49.042;9.028;2023-06-26T05:33:43;41.60;40.40
3790;DHT22;1910;49.042;9.028;2023-06-26T05:38:38;43.50;40.00
3790;DHT22;1910;49.042;9.028;2023-06-26T05:45:56;45.50;47.70
3790;DHT22;1910;49.042;9.028;2023-06-26T05:53:16;43.10;34.60
3790;DHT22;1910;49.042;9.028;2023-06-26T05:58:10;43.40;33.80
3790;DHT22;1910;49.042;9.028;2023-06-26T06:03:02;45.20;33.30
3790;DHT22;1910;49.042;9.028;2023-06-26T06:15:13;45.90;29.90
3790;DHT22;1910;49.042;9.028;2023-06-26T06:39:34;45.60;39.20
3790;DHT22;1910;49.042;9.028;2023-06-26T06:49:18;45.70;29.00
3790;DHT22;1910;49.042;9.028;2023-06-26T07:01:28;46.60;25.80
3790;DHT22;1910;49.042;9.028;2023-06-26T07:28:13;43.90;39.50
3790;DHT22;1910;49.042;9.028;2023-06-26T08:21:46;39.00;30.80
3790;DHT22;1910;49.042;9.028;2023-06-26T08:24:12;38.30;31.70
3790;DHT22;1910;49.042;9.028;2023-06-26T08:26:38;38.20;32.20
3790;DHT22;1910;49.042;9.028;2023-06-26T08:31:34;35.80;36.10
3790;DHT22;1910;49.042;9.028;2023-06-26T08:34:00;34.70;38.80
3790;DHT22;1910;49.042;9.028;2023-06-26T08:36:26;35.10;39.60
3790;DHT22;1910;49.042;9.028;2023-06-26T08:38:52;34.80;38.90
3790;DHT22;1910;49.042;9.028;2023-06-26T08:41:18;33.90;39.00
3790;DHT22;1910;49.042;9.028;2023-06-26T08:51:09;34.70;39.80
3790;DHT22;1910;49.042;9.028;2023-06-26T08:53:42;35.30;40.40
3790;DHT22;1910;49.042;9.028;2023-06-26T08:56:08;34.80;37.20
3790;DHT22;1910;49.042;9.028;2023-06-26T08:58:36;34.60;40.10
3790;DHT22;1910;49.042;9.028;2023-06-26T09:01:04;34.80;40.80
3790;DHT22;1910;49.042;9.028;2023-06-26T09:03:31;34.10;40.30
3790;DHT22;1910;49.042;9.028;2023-06-26T09:05:56;32.70;42.20
3790;DHT22;1910;49.042;9.028;2023-06-26T09:13:14;32.20;43.60
3790;DHT22;1910;49.042;9.028;2023-06-26T09:15:44;33.40;44.10
3790;DHT22;1910;49.042;9.028;2023-06-26T09:20:36;33.00;43.20
3790;DHT22;1910;49.042;9.028;2023-06-26T09:23:02;32.50;44.10
3790;DHT22;1910;49.042;9.028;2023-06-26T09:25:28;31.80;44.70
3790;DHT22;1910;49.042;9.028;2023-06-26T09:27:55;32.10;46.40
3790;DHT22;1910;49.042;9.028;2023-06-26T09:35:13;31.40;47.70
3790;DHT22;1910;49.042;9.028;2023-06-26T09:37:39;31.10;48.40
3790;DHT22;1910;49.042;9.028;2023-06-26T09:40:06;31.30;49.20
3790;DHT22;1910;49.042;9.028;2023-06-26T09:42:32;31.70;49.60
3790;DHT22;1910;49.042;9.028;2023-06-26T09:49:49;31.40;47.20
3790;DHT22;1910;49.042;9.028;2023-06-26T09:52:17;30.70;48.60
3790;DHT22;1910;49.042;9.028;2023-06-26T09:54:44;30.20;50.50
3790;DHT22;1910;49.042;9.028;2023-06-26T09:57:13;30.00;51.50
3790;DHT22;1910;49.042;9.028;2023-06-26T09:59:41;30.10;52.10
3790;DHT22;1910;49.042;9.028;2023-06-26T10:02:07;29.90;51.60
3790;DHT22;1910;49.042;9.028;2023-06-26T10:04:36;29.90;53.20
3790;DHT22;1910;49.042;9.028;2023-06-26T10:07:04;29.50;54.60
3790;DHT22;1910;49.042;9.028;2023-06-26T10:09:30;29.50;55.20
3790;DHT22;1910;49.042;9.028;2023-06-26T10:12:04;28.90;55.70
3790;DHT22;1910;49.042;9.028;2023-06-26T10:14:35;29.10;56.90
3790;DHT22;1910;49.042;9.028;2023-06-26T10:17:04;29.00;57.40
3790;DHT22;1910;49.042;9.028;2023-06-26T10:19:32;29.20;58.60
3790;DHT22;1910;49.042;9.028;2023-06-26T10:21:58;28.60;60.00
3790;DHT22;1910;49.042;9.028;2023-06-26T10:24:26;29.20;60.70
3790;DHT22;1910;49.042;9.028;2023-06-26T10:27:03;29.20;61.40
3790;DHT22;1910;49.042;9.028;2023-06-26T10:29:30;29.90;60.50
3790;DHT22;1910;49.042;9.028;2023-06-26T10:31:58;31.30;58.70
3790;DHT22;1910;49.042;9.028;2023-06-26T10:34:25;31.70;56.10
3790;DHT22;1910;49.042;9.028;2023-06-26T10:37:03;30.10;57.00
3790;DHT22;1910;49.042;9.028;2023-06-26T10:39:49;29.60;59.10
3790;DHT22;1910;49.042;9.028;2023-06-26T10:44:46;29.80;60.00
3790;DHT22;1910;49.042;9.028;2023-06-26T10:47:31;28.70;60.90
3790;DHT22;1910;49.042;9.028;2023-06-26T10:55:10;29.20;64.60
3790;DHT22;1910;49.042;9.028;2023-06-26T10:57:36;29.90;66.00
3790;DHT22;1910;49.042;9.028;2023-06-26T11:00:14;29.10;65.10
3790;DHT22;1910;49.042;9.028;2023-06-26T11:02:52;29.40;67.20
3790;DHT22;1910;49.042;9.028;2023-06-26T11:05:29;29.90;64.40
3790;DHT22;1910;49.042;9.028;2023-06-26T11:08:08;29.60;63.60
3790;DHT22;1910;49.042;9.028;2023-06-26T11:10:54;29.20;66.50
3790;DHT22;1910;49.042;9.028;2023-06-26T11:13:25;29.10;65.60
3790;DHT22;1910;49.042;9.028;2023-06-26T11:15:51;29.00;69.10
3790;DHT22;1910;49.042;9.028;2023-06-26T11:18:17;28.90;69.70
3790;DHT22;1910;49.042;9.028;2023-06-26T11:20:43;28.90;70.20
3790;DHT22;1910;49.042;9.028;2023-06-26T11:23:09;28.30;69.80
3790;DHT22;1910;49.042;9.028;2023-06-26T11:28:03;29.10;70.40
3790;DHT22;1910;49.042;9.028;2023-06-26T11:30:29;29.10;71.10
3790;DHT22;1910;49.042;9.028;2023-06-26T11:33:06;28.70;71.80
3790;DHT22;1910;49.042;9.028;2023-06-26T11:35:31;28.60;74.40
3790;DHT22;1910;49.042;9.028;2023-06-26T11:37:59;29.00;73.10
3790;DHT22;1910;49.042;9.028;2023-06-26T11:42:53;29.30;74.30
3790;DHT22;1910;49.042;9.028;2023-06-26T11:45:19;29.40;73.30
3790;DHT22;1910;49.042;9.028;2023-06-26T11:47:45;29.40;74.10
3790;DHT22;1910;49.042;9.028;2023-06-26T11:50:15;28.70;73.50
3790;DHT22;1910;49.042;9.028;2023-06-26T11:52:45;28.90;77.00
3790;DHT22;1910;49.042;9.028;2023-06-26T11:55:10;28.90;77.70
3790;DHT22;1910;49.042;9.028;2023-06-26T12:00:15;29.00;76.60
3790;DHT22;1910;49.042;9.028;2023-06-26T12:02:42;29.30;77.40
3790;DHT22;1910;49.042;9.028;2023-06-26T12:05:08;29.30;78.20
3790;DHT22;1910;49.042;9.028;2023-06-26T12:12:28;29.30;75.20
3790;DHT22;1910;49.042;9.028;2023-06-26T12:14:53;29.00;76.40
3790;DHT22;1910;49.042;9.028;2023-06-26T12:17:23;28.10;80.80
3790;DHT22;1910;49.042;9.028;2023-06-26T12:22:17;28.80;80.30
3790;DHT22;1910;49.042;9.028;2023-06-26T12:24:44;28.80;78.30
3790;DHT22;1910;49.042;9.028;2023-06-26T12:27:12;28.70;78.50
3790;DHT22;1910;49.042;9.028;2023-06-26T12:29:40;29.60;79.90
3790;DHT22;1910;49.042;9.028;2023-06-26T12:32:10;28.50;79.60
3790;DHT22;1910;49.042;9.028;2023-06-26T12:34:37;28.50;79.20
3790;DHT22;1910;49.042;9.028;2023-06-26T12:37:08;28.50;79.30
3790;DHT22;1910;49.042;9.028;2023-06-26T12:39:51;28.50;79.40
3790;DHT22;1910;49.042;9.028;2023-06-26T12:42:22;28.50;78.80
3790;DHT22;1910;49.042;9.028;2023-06-26T12:44:49;28.50;79.60
3790;DHT22;1910;49.042;9.028;2023-06-26T12:47:16;28.60;77.50
3790;DHT22;1910;49.042;9.028;2023-06-26T12:49:44;29.20;78.70
3790;DHT22;1910;49.042;9.028;2023-06-26T12:52:14;29.00;78.70
3790;DHT22;1910;49.042;9.028;2023-06-26T12:54:42;29.30;76.70
3790;DHT22;1910;49.042;9.028;2023-06-26T12:59:36;28.90;72.90
3790;DHT22;1910;49.042;9.028;2023-06-26T13:02:02;28.30;72.90
3790;DHT22;1910;49.042;9.028;2023-06-26T13:04:28;28.30;75.00
3790;DHT22;1910;49.042;9.028;2023-06-26T13:06:54;28.40;73.70
3790;DHT22;1910;49.042;9.028;2023-06-26T13:09:21;29.10;74.90
3790;DHT22;1910;49.042;9.028;2023-06-26T13:16:39;29.00;68.30
3790;DHT22;1910;49.042;9.028;2023-06-26T13:23:57;29.00;66.00
3790;DHT22;1910;49.042;9.028;2023-06-26T13:26:24;28.50;66.60
3790;DHT22;1910;49.042;9.028;2023-06-26T13:28:51;28.50;67.00
3790;DHT22;1910;49.042;9.028;2023-06-26T13:31:16;29.20;66.10
3790;DHT22;1910;49.042;9.028;2023-06-26T13:33:42;28.90;66.20
3790;DHT22;1910;49.042;9.028;2023-06-26T13:41:00;28.70;62.40
3790;DHT22;1910;49.042;9.028;2023-06-26T13:43:27;28.50;61.90
3790;DHT22;1910;49.042;9.028;2023-06-26T13:45:53;28.70;61.70
3790;DHT22;1910;49.042;9.028;2023-06-26T13:50:46;29.20;62.40
3790;DHT22;1910;49.042;9.028;2023-06-26T13:53:12;28.90;59.80
3790;DHT22;1910;49.042;9.028;2023-06-26T13:58:04;29.00;59.60
3790;DHT22;1910;49.042;9.028;2023-06-26T14:02:56;28.20;58.00
3790;DHT22;1910;49.042;9.028;2023-06-26T14:07:48;28.80;59.90
3790;DHT22;1910;49.042;9.028;2023-06-26T14:12:40;28.50;58.40
3790;DHT22;1910;49.042;9.028;2023-06-26T14:15:06;28.30;58.20
3790;DHT22;1910;49.042;9.028;2023-06-26T14:17:32;28.10;58.80
3790;DHT22;1910;49.042;9.028;2023-06-26T14:22:24;28.60;57.80
3790;DHT22;1910;49.042;9.028;2023-06-26T14:24:50;28.40;58.90
3790;DHT22;1910;49.042;9.028;2023-06-26T14:29:42;28.30;57.80
3790;DHT22;1910;49.042;9.028;2023-06-26T14:34:33;28.70;58.10
3790;DHT22;1910;49.042;9.028;2023-06-26T14:39:25;29.30;57.20
3790;DHT22;1910;49.042;9.028;2023-06-26T14:41:50;29.20;57.10
3790;DHT22;1910;49.042;9.028;2023-06-26T14:49:08;29.00;56.00
3790;DHT22;1910;49.042;9.028;2023-06-26T14:51:34;29.00;56.80
3790;DHT22;1910;49.042;9.028;2023-06-26T15:08:37;28.50;58.80
3790;DHT22;1910;49.042;9.028;2023-06-26T15:11:02;28.50;59.20
3790;DHT22;1910;49.042;9.028;2023-06-26T15:13:28;27.90;59.40
3790;DHT22;1910;49.042;9.028;2023-06-26T15:18:20;28.10;58.60
3790;DHT22;1910;49.042;9.028;2023-06-26T15:20:45;27.60;60.00
3790;DHT22;1910;49.042;9.028;2023-06-26T15:28:06;28.10;58.90
3790;DHT22;1910;49.042;9.028;2023-06-26T15:30:32;28.10;59.40
3790;DHT22;1910;49.042;9.028;2023-06-26T15:35:24;27.50;58.30
3790;DHT22;1910;49.042;9.028;2023-06-26T15:42:49;27.40;58.30
3790;DHT22;1910;49.042;9.028;2023-06-26T15:45:15;27.00;57.30
3790;DHT22;1910;49.042;9.028;2023-06-26T15:50:09;27.00;57.00
3790;DHT22;1910;49.042;9.028;2023-06-26T15:52:35;27.10;56.40
3790;DHT22;1910;49.042;9.028;2023-06-26T15:57:27;27.20;55.10
3790;DHT22;1910;49.042;9.028;2023-06-26T15:59:52;27.10;54.20
3790;DHT22;1910;49.042;9.028;2023-06-26T16:12:02;27.60;48.80
3790;DHT22;1910;49.042;9.028;2023-06-26T16:29:03;27.40;43.80
3790;DHT22;1910;49.042;9.028;2023-06-26T16:46:06;26.40;42.70
3790;DHT22;1910;49.042;9.028;2023-06-26T16:48:31;26.40;44.60
3790;DHT22;1910;49.042;9.028;2023-06-26T16:50:57;26.30;45.20
3790;DHT22;1910;49.042;9.028;2023-06-26T16:53:22;26.30;45.30
3790;DHT22;1910;49.042;9.028;2023-06-26T17:03:07;26.40;45.60
3790;DHT22;1910;49.042;9.028;2023-06-26T17:05:32;26.30;45.50
3790;DHT22;1910;49.042;9.028;2023-06-26T17:10:24;26.10;45.30
3790;DHT22;1910;49.042;9.028;2023-06-26T17:12:49;25.90;46.30
3790;DHT22;1910;49.042;9.028;2023-06-26T17:20:07;25.80;46.40
3790;DHT22;1910;49.042;9.028;2023-06-26T17:22:37;25.70;47.00
3790;DHT22;1910;49.042;9.028;2023-06-26T17:25:03;25.60;47.60
3790;DHT22;1910;49.042;9.028;2023-06-26T17:27:34;25.50;47.30
3790;DHT22;1910;49.042;9.028;2023-06-26T17:30:00;25.30;46.40
3790;DHT22;1910;49.042;9.028;2023-06-26T17:34:52;25.20;47.00
3790;DHT22;1910;49.042;9.028;2023-06-26T17:37:19;25.30;47.60
3790;DHT22;1910;49.042;9.028;2023-06-26T17:44:37;24.80;47.00
3790;DHT22;1910;49.042;9.028;2023-06-26T17:47:03;24.80;48.20
3790;DHT22;1910;49.042;9.028;2023-06-26T17:49:29;24.80;47.60
3790;DHT22;1910;49.042;9.028;2023-06-26T17:51:54;24.80;48.00
3790;DHT22;1910;49.042;9.028;2023-06-26T17:54:20;25.00;48.40
3790;DHT22;1910;49.042;9.028;2023-06-26T17:56:46;24.70;48.00
3790;DHT22;1910;49.042;9.028;2023-06-26T17:59:13;24.70;47.90
3790;DHT22;1910;49.042;9.028;2023-06-26T18:01:39;24.60;48.40
3790;DHT22;1910;49.042;9.028;2023-06-26T18:04:05;26.40;49.70
3790;DHT22;1910;49.042;9.028;2023-06-26T18:21:07;24.30;51.60
3790;DHT22;1910;49.042;9.028;2023-06-26T18:23:33;24.10;48.50
3790;DHT22;1910;49.042;9.028;2023-06-26T18:25:59;23.90;48.10
3790;DHT22;1910;49.042;9.028;2023-06-26T18:33:17;23.60;48.50
3790;DHT22;1910;49.042;9.028;2023-06-26T18:40:37;23.20;49.60
3790;DHT22;1910;49.042;9.028;2023-06-26T18:52:55;22.90;51.00
3790;DHT22;1910;49.042;9.028;2023-06-26T18:55:20;22.80;51.20
3790;DHT22;1910;49.042;9.028;2023-06-26T18:57:49;20.40;49.80
3790;DHT22;1910;49.042;9.028;2023-06-26T19:00:16;21.90;51.20
3790;DHT22;1910;49.042;9.028;2023-06-26T19:02:45;22.60;51.80
3790;DHT22;1910;49.042;9.028;2023-06-26T19:05:10;24.20;53.00
3790;DHT22;1910;49.042;9.028;2023-06-26T19:07:36;22.60;51.80
3790;DHT22;1910;49.042;9.028;2023-06-26T19:10:02;22.60;52.60
3790;DHT22;1910;49.042;9.028;2023-06-26T19:12:27;22.40;52.60
3790;DHT22;1910;49.042;9.028;2023-06-26T19:14:54;22.50;52.40
3790;DHT22;1910;49.042;9.028;2023-06-26T19:17:20;22.50;52.90
3790;DHT22;1910;49.042;9.028;2023-06-26T19:19:46;22.50;52.70
3790;DHT22;1910;49.042;9.028;2023-06-26T19:22:11;23.10;53.60
3790;DHT22;1910;49.042;9.028;2023-06-26T19:24:37;22.40;53.50
3790;DHT22;1910;49.042;9.028;2023-06-26T19:27:03;23.20;54.20
3790;DHT22;1910;49.042;9.028;2023-06-26T19:29:29;22.40;53.60
3790;DHT22;1910;49.042;9.028;2023-06-26T19:31:55;22.30;54.00
3790;DHT22;1910;49.042;9.028;2023-06-26T19:36:50;22.10;54.00
3790;DHT22;1910;49.042;9.028;2023-06-26T19:41:43;22.00;54.50
3790;DHT22;1910;49.042;9.028;2023-06-26T19:44:10;23.10;56.10
3790;DHT22;1910;49.042;9.028;2023-06-26T19:46:38;22.00;54.80
3790;DHT22;1910;49.042;9.028;2023-06-26T20:03:40;21.70;55.90
3790;DHT22;1910;49.042;9.028;2023-06-26T20:06:06;21.90;56.80
3790;DHT22;1910;49.042;9.028;2023-06-26T20:08:32;21.70;56.80
3790;DHT22;1910;49.042;9.028;2023-06-26T20:10:57;21.50;56.80
3790;DHT22;1910;49.042;9.028;2023-06-26T20:13:24;23.10;58.50
3790;DHT22;1910;49.042;9.028;2023-06-26T20:15:49;21.50;57.20
3790;DHT22;1910;49.042;9.028;2023-06-26T20:18:15;21.50;57.60
3790;DHT22;1910;49.042;9.028;2023-06-26T20:20:40;21.50;57.90
3790;DHT22;1910;49.042;9.028;2023-06-26T20:23:06;21.40;58.10
3790;DHT22;1910;49.042;9.028;2023-06-26T20:25:31;21.40;58.40
3790;DHT22;1910;49.042;9.028;2023-06-26T20:27:59;21.30;58.60
3790;DHT22;1910;49.042;9.028;2023-06-26T20:30:24;21.40;59.00
3790;DHT22;1910;49.042;9.028;2023-06-26T20:35:16;21.30;58.70
3790;DHT22;1910;49.042;9.028;2023-06-26T20:37:41;21.30;59.10
3790;DHT22;1910;49.042;9.028;2023-06-26T20:40:08;21.20;59.50
3790;DHT22;1910;49.042;9.028;2023-06-26T20:42:33;21.20;59.70
3790;DHT22;1910;49.042;9.028;2023-06-26T20:44:59;21.10;59.90
3790;DHT22;1910;49.042;9.028;2023-06-26T20:47:25;21.00;60.30
3790;DHT22;1910;49.042;9.028;2023-06-26T20:50:02;21.00;60.80
3790;DHT22;1910;49.042;9.028;2023-06-26T20:52:28;21.00;61.20
3790;DHT22;1910;49.042;9.028;2023-06-26T20:54:55;20.90;61.70
3790;DHT22;1910;49.042;9.028;2023-06-26T20:57:21;20.90;62.00
3790;DHT22;1910;49.042;9.028;2023-06-26T21:04:39;21.20;62.50
3790;DHT22;1910;49.042;9.028;2023-06-26T21:07:06;21.20;62.90
3790;DHT22;1910;49.042;9.028;2023-06-26T21:09:31;21.20;63.70
3790;DHT22;1910;49.042;9.028;2023-06-26T21:11:58;21.70;63.30
3790;DHT22;1910;49.042;9.028;2023-06-26T21:14:23;21.10;63.60
3790;DHT22;1910;49.042;9.028;2023-06-26T21:16:49;21.10;63.60
3790;DHT22;1910;49.042;9.028;2023-06-26T21:19:15;21.00;64.10
3790;DHT22;1910;49.042;9.028;2023-06-26T21:21:40;20.90;64.60
3790;DHT22;1910;49.042;9.028;2023-06-26T21:24:07;20.80;65.10
3790;DHT22;1910;49.042;9.028;2023-06-26T21:28:59;20.70;65.10
3790;DHT22;1910;49.042;9.028;2023-06-26T21:31:25;20.60;66.00
3790;DHT22;1910;49.042;9.028;2023-06-26T21:33:51;20.60;66.10
3790;DHT22;1910;49.042;9.028;2023-06-26T21:38:43;20.50;65.90
3790;DHT22;1910;49.042;9.028;2023-06-26T21:41:08;20.80;67.90
3790;DHT22;1910;49.042;9.028;2023-06-26T21:43:34;20.50;67.60
3790;DHT22;1910;49.042;9.028;2023-06-26T21:46:00;20.30;67.60
3790;DHT22;1910;49.042;9.028;2023-06-26T21:48:25;20.30;67.80
3790;DHT22;1910;49.042;9.028;2023-06-26T21:50:50;20.30;68.60
3790;DHT22;1910;49.042;9.028;2023-06-26T21:53:16;20.20;68.80
3790;DHT22;1910;49.042;9.028;2023-06-26T21:55:41;20.20;68.60
3790;DHT22;1910;49.042;9.028;2023-06-26T21:58:07;20.20;69.30
3790;DHT22;1910;49.042;9.028;2023-06-26T22:00:32;20.30;69.40
3790;DHT22;1910;49.042;9.028;2023-06-26T22:02:58;20.30;69.20
3790;DHT22;1910;49.042;9.028;2023-06-26T22:07:49;20.30;68.20
3790;DHT22;1910;49.042;9.028;2023-06-26T22:10:15;20.30;68.50
3790;DHT22;1910;49.042;9.028;2023-06-26T22:12:40;20.30;69.00
3790;DHT22;1910;49.042;9.028;2023-06-26T22:15:07;20.20;69.30
3790;DHT22;1910;49.042;9.028;2023-06-26T22:17:50;20.10;69.70
3790;DHT22;1910;49.042;9.028;2023-06-26T22:20:16;19.60;69.60
3790;DHT22;1910;49.042;9.028;2023-06-26T22:22:43;20.10;69.10
3790;DHT22;1910;49.042;9.028;2023-06-26T22:25:09;21.20;71.00
3790;DHT22;1910;49.042;9.028;2023-06-26T22:27:37;20.10;70.30
3790;DHT22;1910;49.042;9.028;2023-06-26T22:30:03;20.00;70.10
3790;DHT22;1910;49.042;9.028;2023-06-26T22:32:29;20.00;70.30
3790;DHT22;1910;49.042;9.028;2023-06-26T22:37:20;20.00;69.60
3790;DHT22;1910;49.042;9.028;2023-06-26T22:39:45;20.20;70.50
3790;DHT22;1910;49.042;9.028;2023-06-26T22:42:11;20.10;70.50
3790;DHT22;1910;49.042;9.028;2023-06-26T22:44:36;20.10;69.60
3790;DHT22;1910;49.042;9.028;2023-06-26T22:47:02;20.10;70.00
3790;DHT22;1910;49.042;9.028;2023-06-26T22:49:28;20.10;70.10
3790;DHT22;1910;49.042;9.028;2023-06-26T22:51:53;20.10;69.80
3790;DHT22;1910;49.042;9.028;2023-06-26T22:54:19;20.10;69.40
3790;DHT22;1910;49.042;9.028;2023-06-26T22:56:44;19.60;69.20
3790;DHT22;1910;49.042;9.028;2023-06-26T22:59:10;20.20;69.40
3790;DHT22;1910;49.042;9.028;2023-06-26T23:01:36;20.20;69.70
3790;DHT22;1910;49.042;9.028;2023-06-26T23:04:03;20.10;69.40
3790;DHT22;1910;49.042;9.028;2023-06-26T23:06:28;20.10;70.10
3790;DHT22;1910;49.042;9.028;2023-06-26T23:08:54;20.00;70.40
3790;DHT22;1910;49.042;9.028;2023-06-26T23:11:21;20.00;70.60
3790;DHT22;1910;49.042;9.028;2023-06-26T23:13:46;20.00;71.00
3790;DHT22;1910;49.042;9.028;2023-06-26T23:16:12;20.00;70.80
3790;DHT22;1910;49.042;9.028;2023-06-26T23:18:39;20.00;70.80
3790;DHT22;1910;49.042;9.028;2023-06-26T23:21:04;19.90;71.70
3790;DHT22;1910;49.042;9.028;2023-06-26T23:23:30;19.80;72.20
3790;DHT22;1910;49.042;9.028;2023-06-26T23:25:56;19.80;72.60
3790;DHT22;1910;49.042;9.028;2023-06-26T23:28:25;19.70;72.90
3790;DHT22;1910;49.042;9.028;2023-06-26T23:30:50;19.60;73.50
3790;DHT22;1910;49.042;9.028;2023-06-26T23:33:16;19.70;74.00
3790;DHT22;1910;49.042;9.028;2023-06-26T23:35:43;19.60;74.90
3790;DHT22;1910;49.042;9.028;2023-06-26T23:38:12;19.60;75.70
3790;DHT22;1910;49.042;9.028;2023-06-26T23:40:37;19.50;76.20
3790;DHT22;1910;49.042;9.028;2023-06-26T23:43:04;19.50;76.70
3790;DHT22;1910;49.042;9.028;2023-06-26T23:45:30;19.50;77.10
3790;DHT22;1910;49.042;9.028;2023-06-26T23:47:58;19.40;76.00
3790;DHT22;1910;49.042;9.028;2023-06-26T23:50:25;19.50;76.80
3790;DHT22;1910;49.042;9.028;2023-06-26T23:55:18;19.50;75.90
3790;DHT22;1910;49.042;9.028;2023-06-26T23:57:45;19.40;75.50
